NCAR-RAP Real-Time Weather Data

Output produced by METARs form (23 June 2018  19:34 UTC)
found at http://weather.rap.ucar.edu/surface/
 
RJSF 231100Z 17004KT 4000 BR FEW008 SCT110 BKN130 18/18 Q1003
RJSF 231037Z 14003KT 4000 BR FEW008 SCT025 BKN130 19/19 Q1003 RMK 2ST008 3SC025 7AC130 A2964
RJSF 231011Z 13004KT 100V160 2600 -RA BCFG BR FEW008 SCT015 BKN110 19/19 Q1004 RMK 1ST008 4SC015 7AC110 A2966
RJSF 231000Z 13004KT 090V150 2000 -RA BCFG BR FEW006 SCT015 BKN110 19/19 Q1004
RJSF 230922Z 14004KT 110V170 2200 -RA BCFG BR FEW006 BKN015 BKN040 19/19 Q1004 RMK 1ST006 5SC015 7SC040 A2967
RJSF 230907Z 15003KT 110V180 3000 -RA BCFG BR FEW007 SCT015 BKN040 19/19 Q1004 RMK 1ST007 4SC015 7SC040 A2967
RJSF 230900Z 13003KT 090V180 4000 -RA BR FEW006 SCT015 BKN040 19/19 Q1004
RJSF 230800Z 23003KT 190V280 4000 -RA BR FEW010 SCT020 BKN050 19/19 Q1005
RJSF 230700Z 19003KT 150V220 8000 -RA FEW020 SCT040 BKN070 20/20 Q1005
RJSF 230600Z 20007KT 9999 -RA FEW020 SCT040 BKN130 21/21 Q1005
RJSF 230500Z 17003KT 130V240 9999 VCSH FEW030 BKN050 BKN130 22/22 Q1004
RJSF 230400Z 21008KT 9999 FEW040 BKN150 22/22 Q1006
RJSF 230300Z 20007KT 9999 FEW030 BKN160 23/23 Q1007
RJSF 230200Z 22004KT 9999 FEW025 SCT160 BKN/// 22/22 Q1008
RJSF 230100Z VRB01KT 9999 FEW020 BKN/// 22/22 Q1009
RJSF 230000Z VRB01KT 9999 FEW020 BKN/// 21/21 Q1010
RJSF 222300Z VRB02KT 9999 FEW010 BKN/// 20/20 Q1010
RJSF 222200Z 25003KT 220V280 9999 FEW005 SCT040 BKN/// 18/18 Q1010
RJSF 222140Z VRB02KT 9999 FEW005 SCT045 BKN/// 17/17 Q1010 RMK 1ST005 3CU045 A2985
RJSF 221100Z 35004KT 320V020 CAVOK 19/09 Q1010
RJSF 221000Z 36004KT 320V060 CAVOK 21/09 Q1009
RJSF 220900Z 35011KT CAVOK 23/10 Q1009
RJSF 220800Z 35012KT 9999 FEW050 SCT070 25/10 Q1008
RJSF 220700Z 36012KT 320V040 9999 FEW050 SCT070 26/10 Q1008
RJSF 220600Z 35011KT 310V010 9999 FEW050 25/10 Q1008
RJSF 220500Z 36010KT 330V040 9999 FEW050 25/11 Q1008
RJSF 220400Z 33009KT 290V020 9999 FEW050 SCT/// 26/11 Q1008
RJSF 220300Z 32007KT 240V030 9999 FEW050 BKN/// 25/12 Q1008
RJSF 220200Z 31007KT 240V020 9999 FEW050 SCT/// 24/11 Q1009
RJSF 220100Z VRB05KT 9999 FEW045 SCT/// 22/11 Q1009
RJSF 220000Z 35006KT 290V060 9999 FEW040 21/12 Q1009
RJSF 212300Z 33008KT 9999 FEW035 21/11 Q1009
RJSF 212200Z 34009KT 9999 FEW030 19/11 Q1009
RJSF 212140Z 35013KT 9999 FEW030 19/11 Q1009 RMK 1CU030 A2981
RJSF 211100Z 36007KT 9999 FEW030 BKN/// 19/19 Q1005
RJSF 211000Z 34006KT 310V040 9999 FEW015 FEW030CB BKN/// 21/21 Q1005
RJSF 210900Z 22002KT 9999 FEW030 BKN/// 22/22 Q1003
RJSF 210800Z 19004KT 9999 FEW030 SCT080 BKN/// 23/23 Q1003